Wyoming, Iowa
Current Conditions -  °F | °C
As of 5:55 PM on Monday 22 Dec 2014 (Local Time) from KMXO Reporting Station
Haze Haze  
Wind Chill: 28°   Ceiling: 300
Heat Index: 36°   Visibility: 1mi
Dew Point: 36°   Wind: 10mph
Humidity: 100%   Direction: 110°ESE
Pressure: 29.56"   Gusts: NA
Location:  42.06°N, 91.01°W
Report Text: KMXO 222355Z AUTO 11009KT 1SM BR OVC003 02/02 A2956 RMK AO2
Loading
Personal Weather Stations






























Interactive Weather Map New forecast layout! Learn more

10-Day Weather Forecast

Advertisements
Track Severe Weather on mobile